AFA189 RCFN-RCFN

Flight info

Callsign AFA189
Flight time 0h 4m
Altitude 1100
Route DCT ZN DCT
Aircraft DA40/L-SBDFGRY/LB2

Departure

Time 2026-04-21 16:08
Airport Taitung Airport (RCFN)

Arrival

Time 2026-04-21 16:12
Airport Taitung Airport (RCFN)
Time Latitude Longitude Altitude Speed Heading
2026-04-21 15:55 22.75939 121.10328 141 ft 0 kts 39°
2026-04-21 15:59 22.75941 121.10329 141 ft 0 kts 36°
2026-04-21 15:59 22.75945 121.10346 140 ft 5 kts 109°
2026-04-21 16:00 22.75881 121.10348 142 ft 13 kts 219°
2026-04-21 16:00 22.75808 121.10284 141 ft 13 kts 221°
2026-04-21 16:00 22.75745 121.10227 141 ft 11 kts 217°
2026-04-21 16:00 22.75684 121.10177 142 ft 11 kts 217°
2026-04-21 16:01 22.75626 121.10128 142 ft 11 kts 219°
2026-04-21 16:01 22.75561 121.10072 141 ft 13 kts 218°
2026-04-21 16:01 22.75482 121.10003 140 ft 15 kts 219°
2026-04-21 16:01 22.75400 121.09932 142 ft 15 kts 219°
2026-04-21 16:02 22.75322 121.09864 142 ft 15 kts 219°
2026-04-21 16:02 22.75244 121.09799 143 ft 10 kts 201°
2026-04-21 16:02 22.75206 121.09808 143 ft 0 kts 123°
2026-04-21 16:06 22.75181 121.09846 143 ft 13 kts 128°
2026-04-21 16:06 22.75174 121.09893 142 ft 6 kts 39°
2026-04-21 16:06 22.75180 121.09897 142 ft 0 kts 39°
2026-04-21 16:07 22.75217 121.09929 142 ft 31 kts 38°
2026-04-21 16:07 22.75531 121.10197 207 ft 73 kts 37°
2026-04-21 16:07 22.75946 121.10567 428 ft 77 kts 37°
2026-04-21 16:07 22.76366 121.10938 664 ft 82 kts 37°
2026-04-21 16:08 22.77255 121.10936 1089 ft 81 kts 307°
2026-04-21 16:08 22.77502 121.10348 1140 ft 93 kts 268°
2026-04-21 16:08 22.77104 121.09779 1136 ft 103 kts 218°
2026-04-21 16:09 22.76525 121.09302 1119 ft 107 kts 224°
2026-04-21 16:09 22.75959 121.08765 1123 ft 109 kts 226°
2026-04-21 16:09 22.75391 121.08214 1131 ft 109 kts 224°
2026-04-21 16:09 22.74809 121.07689 1111 ft 108 kts 224°
2026-04-21 16:10 22.74267 121.07176 1103 ft 102 kts 225°
2026-04-21 16:10 22.73720 121.06718 1046 ft 101 kts 202°
2026-04-21 16:10 22.73095 121.06948 918 ft 100 kts 127°
2026-04-21 16:10 22.72727 121.07518 857 ft 86 kts 114°
2026-04-21 16:11 22.72874 121.08044 659 ft 80 kts 25°
2026-04-21 16:11 22.73355 121.08320 532 ft 80 kts 35°
2026-04-21 16:11 22.73792 121.08698 412 ft 79 kts 36°
2026-04-21 16:11 22.74224 121.09071 298 ft 80 kts 36°
2026-04-21 16:12 22.74656 121.09445 196 ft 79 kts 37°
2026-04-21 16:12 22.75028 121.09767 147 ft 56 kts 37°
2026-04-21 16:12 22.75287 121.09988 143 ft 44 kts 39°
2026-04-21 16:12 22.75656 121.10312 202 ft 82 kts 37°
2026-04-21 16:13 22.76074 121.10691 482 ft 76 kts 39°
2026-04-21 16:13 22.76484 121.11074 728 ft 76 kts 28°
2026-04-21 16:13 22.76927 121.10944 955 ft 79 kts 307°
2026-04-21 16:13 22.77280 121.10408 1062 ft 93 kts 309°
2026-04-21 16:14 22.77420 121.09757 1104 ft 93 kts 251°
2026-04-21 16:14 22.76920 121.09262 1039 ft 100 kts 222°
2026-04-21 16:14 22.76369 121.08798 1019 ft 100 kts 222°
2026-04-21 16:14 22.75825 121.08336 1003 ft 97 kts 222°
2026-04-21 16:15 22.75307 121.07899 1016 ft 94 kts 222°
2026-04-21 16:15 22.74789 121.07463 1038 ft 94 kts 222°
2026-04-21 16:15 22.74282 121.07034 1045 ft 95 kts 222°
2026-04-21 16:15 22.73752 121.06602 1040 ft 95 kts 220°
2026-04-21 16:16 22.73125 121.06453 966 ft 97 kts 159°
2026-04-21 16:16 22.72690 121.06966 890 ft 88 kts 121°
2026-04-21 16:16 22.72541 121.07551 736 ft 82 kts 63°
2026-04-21 16:16 22.72943 121.07971 634 ft 78 kts 36°
2026-04-21 16:17 22.73376 121.08337 520 ft 81 kts 37°
2026-04-21 16:17 22.73810 121.08716 416 ft 79 kts 36°
2026-04-21 16:17 22.74245 121.09088 301 ft 80 kts 36°
2026-04-21 16:17 22.74677 121.09463 196 ft 79 kts 37°
2026-04-21 16:18 22.75047 121.09784 147 ft 55 kts 36°
2026-04-21 16:18 22.75349 121.10043 146 ft 72 kts 39°
2026-04-21 16:18 22.75770 121.10414 353 ft 78 kts 37°
2026-04-21 16:18 22.76187 121.10781 592 ft 79 kts 37°
2026-04-21 16:19 22.76642 121.11153 782 ft 84 kts 15°
2026-04-21 16:19 22.77119 121.10936 1022 ft 79 kts 315°
2026-04-21 16:19 22.77522 121.10432 1109 ft 94 kts 295°
2026-04-21 16:19 22.77397 121.09755 1078 ft 105 kts 230°
2026-04-21 16:20 22.76806 121.09259 1030 ft 108 kts 221°
2026-04-21 16:20 22.76214 121.08750 1021 ft 107 kts 223°
2026-04-21 16:20 22.75647 121.08263 977 ft 98 kts 211°
2026-04-21 16:20 22.75006 121.08301 734 ft 100 kts 146°
2026-04-21 16:21 22.74564 121.08875 439 ft 100 kts 123°
2026-04-21 16:21 22.74702 121.09486 170 ft 87 kts 37°
2026-04-21 16:21 22.75074 121.09805 149 ft 54 kts 39°
2026-04-21 16:21 22.75322 121.10016 143 ft 38 kts 40°
2026-04-21 16:22 22.75530 121.10199 144 ft 41 kts 38°
2026-04-21 16:22 22.75728 121.10370 144 ft 32 kts 40°
2026-04-21 16:22 22.75847 121.10354 142 ft 12 kts 327°
2026-04-21 16:22 22.75900 121.10364 141 ft 12 kts 34°
2026-04-21 16:23 22.75942 121.10344 141 ft 2 kts 266°
2026-04-21 16:23 22.75943 121.10313 141 ft 2 kts 343°
2026-04-21 16:23 22.75944 121.10314 141 ft 0 kts 37°